createdAt,value
2019-03-28T00:01:25.565Z,12.67
2019-03-28T00:03:54.056Z,14.63
2019-03-28T00:06:23.122Z,11.70
2019-03-28T00:08:51.753Z,17.13
2019-03-28T00:11:20.285Z,15.80
2019-03-28T00:13:48.773Z,16.37
2019-03-28T00:16:17.311Z,16.50
2019-03-28T00:18:45.879Z,14.60
2019-03-28T00:21:14.410Z,16.53
2019-03-28T00:23:44.614Z,16.47
2019-03-28T00:26:13.083Z,20.10
2019-03-28T00:28:41.653Z,17.03
2019-03-28T00:31:10.195Z,17.83
2019-03-28T00:33:38.761Z,15.90
2019-03-28T00:36:07.299Z,22.10
2019-03-28T00:38:35.857Z,20.90
2019-03-28T00:41:04.402Z,15.40
2019-03-28T00:43:32.942Z,14.20
2019-03-28T00:46:01.508Z,17.03
2019-03-28T00:48:30.041Z,14.30
2019-03-28T00:50:58.609Z,18.63
2019-03-28T00:53:27.141Z,14.43
2019-03-28T00:55:55.636Z,17.33
2019-03-28T00:58:24.166Z,19.60
2019-03-28T01:00:52.730Z,20.27
2019-03-28T01:03:21.271Z,17.63
2019-03-28T01:05:49.829Z,12.90
2019-03-28T01:08:18.368Z,16.30
2019-03-28T01:10:47.255Z,21.43
2019-03-28T01:13:15.980Z,15.60
2019-03-28T01:15:44.905Z,25.47
2019-03-28T01:18:13.510Z,19.73
2019-03-28T01:20:42.159Z,17.27
2019-03-28T01:23:10.689Z,20.50
2019-03-28T01:25:39.186Z,20.30
2019-03-28T01:28:07.726Z,18.80
2019-03-28T01:30:36.292Z,15.70
2019-03-28T01:33:04.822Z,16.60
2019-03-28T01:35:33.394Z,15.87
2019-03-28T01:38:02.301Z,16.73
2019-03-28T01:40:30.863Z,21.30
2019-03-28T01:42:59.397Z,15.67
2019-03-28T01:45:27.904Z,16.47
2019-03-28T01:47:56.439Z,13.43
2019-03-28T01:50:25.041Z,17.83
2019-03-28T01:52:53.600Z,18.43
2019-03-28T01:55:22.128Z,20.07
2019-03-28T01:57:50.615Z,9.67
2019-03-28T02:00:19.146Z,14.80
2019-03-28T02:02:47.710Z,9.70
2019-03-28T02:05:16.242Z,13.90
2019-03-28T02:07:44.725Z,17.57
2019-03-28T02:10:13.264Z,20.53
2019-03-28T02:12:41.894Z,11.40
2019-03-28T02:15:10.607Z,14.10
2019-03-28T02:17:39.160Z,14.10
2019-03-28T02:20:10.302Z,16.57
2019-03-28T02:22:39.021Z,11.30
2019-03-28T02:25:07.925Z,18.80
2019-03-28T02:27:36.493Z,13.73
2019-03-28T02:30:07.106Z,13.67
2019-03-28T02:32:35.675Z,12.53
2019-03-28T02:35:06.332Z,14.23
2019-03-28T02:37:34.900Z,10.60
2019-03-28T02:40:04.569Z,15.23
2019-03-28T02:42:33.138Z,19.83
2019-03-28T02:45:01.686Z,19.17
2019-03-28T02:47:30.258Z,14.80
2019-03-28T02:49:58.778Z,18.40
2019-03-28T02:52:27.352Z,16.77
2019-03-28T02:54:55.894Z,17.47
2019-03-28T02:57:39.662Z,20.20
2019-03-28T02:59:54.850Z,21.77
2019-03-28T03:02:23.506Z,14.83
2019-03-28T03:04:52.146Z,16.73
2019-03-28T03:07:20.803Z,19.03
2019-03-28T03:09:49.411Z,16.90
2019-03-28T03:12:17.963Z,18.33
2019-03-28T03:14:46.527Z,17.47
2019-03-28T03:17:15.786Z,15.40
2019-03-28T03:19:44.534Z,14.30
2019-03-28T03:22:13.062Z,17.33
2019-03-28T03:24:41.634Z,18.13
2019-03-28T03:27:10.154Z,19.73
2019-03-28T03:29:38.725Z,14.80
2019-03-28T03:32:07.255Z,12.27
2019-03-28T03:34:35.820Z,21.33
2019-03-28T03:37:04.371Z,15.53
2019-03-28T03:39:32.910Z,13.27
2019-03-28T03:42:01.518Z,19.33
2019-03-28T03:44:30.075Z,13.10
2019-03-28T03:46:58.610Z,17.73
2019-03-28T03:49:27.170Z,20.00
2019-03-28T03:51:55.718Z,13.30
2019-03-28T03:54:24.267Z,12.43
2019-03-28T03:56:52.815Z,14.43
2019-03-28T03:59:21.364Z,14.57
2019-03-28T04:01:49.826Z,14.33
2019-03-28T04:04:18.388Z,14.50
2019-03-28T04:06:47.709Z,14.10
2019-03-28T04:09:16.318Z,16.00
2019-03-28T04:11:45.743Z,17.07
2019-03-28T04:14:14.377Z,18.17
2019-03-28T04:16:42.927Z,16.80
2019-03-28T04:19:11.453Z,16.17
2019-03-28T04:21:40.028Z,14.90
2019-03-28T04:24:08.569Z,17.33
2019-03-28T04:26:37.140Z,17.93
2019-03-28T04:29:05.682Z,15.47
2019-03-28T04:31:34.308Z,14.23
2019-03-28T04:34:07.432Z,15.30
2019-03-28T04:36:33.049Z,14.60
2019-03-28T04:39:01.582Z,21.00
2019-03-28T04:41:30.071Z,18.90
2019-03-28T04:43:58.606Z,22.40
2019-03-28T04:46:27.112Z,16.77
2019-03-28T04:48:55.637Z,15.20
2019-03-28T04:51:24.206Z,16.20
2019-03-28T04:53:52.741Z,13.33
2019-03-28T04:56:21.234Z,13.97
2019-03-28T04:58:49.766Z,16.40
2019-03-28T05:01:18.250Z,14.13
2019-03-28T05:03:46.783Z,13.97
2019-03-28T05:06:15.420Z,12.03
2019-03-28T05:08:43.948Z,15.10
2019-03-28T05:11:12.515Z,19.40
2019-03-28T05:13:41.059Z,21.53
2019-03-28T05:16:09.622Z,23.60
2019-03-28T05:18:38.172Z,19.00
2019-03-28T05:21:06.733Z,17.70
2019-03-28T05:23:35.314Z,13.97
2019-03-28T05:26:03.892Z,19.20
2019-03-28T05:28:32.348Z,22.20
2019-03-28T05:31:00.838Z,16.07
2019-03-28T05:33:29.306Z,16.03
2019-03-28T05:35:57.872Z,14.63
2019-03-28T05:38:26.417Z,13.47
2019-03-28T05:40:55.047Z,14.07
2019-03-28T05:43:23.589Z,18.83
2019-03-28T05:45:52.150Z,13.20
2019-03-28T05:48:20.692Z,22.10
2019-03-28T05:50:49.250Z,14.57
2019-03-28T05:53:17.795Z,18.50
2019-03-28T05:55:46.340Z,14.47
2019-03-28T05:58:14.906Z,19.10
2019-03-28T06:00:43.441Z,17.67
2019-03-28T06:03:11.925Z,11.97
2019-03-28T06:05:40.385Z,16.10
2019-03-28T06:08:08.892Z,22.57
2019-03-28T06:10:37.433Z,16.53
2019-03-28T06:13:05.996Z,18.57
2019-03-28T06:15:34.468Z,15.50
2019-03-28T06:18:03.026Z,13.90
2019-03-28T06:20:31.571Z,16.37
2019-03-28T06:23:00.134Z,14.57
2019-03-28T06:25:28.675Z,13.07
2019-03-28T06:27:57.242Z,14.90
2019-03-28T06:30:25.774Z,15.90
2019-03-28T06:32:54.333Z,15.00
2019-03-28T06:35:22.799Z,15.73
2019-03-28T06:37:51.691Z,13.60
2019-03-28T06:40:20.306Z,18.43
2019-03-28T06:42:48.789Z,12.43
2019-03-28T06:45:17.255Z,14.30
2019-03-28T06:47:45.821Z,15.07
2019-03-28T06:50:14.894Z,16.13
2019-03-28T06:52:43.454Z,14.00
2019-03-28T06:55:11.981Z,14.33
2019-03-28T06:57:40.469Z,22.87
2019-03-28T07:00:11.070Z,16.47
2019-03-28T07:02:39.558Z,18.50
2019-03-28T07:05:08.259Z,16.27
2019-03-28T07:07:36.750Z,15.97
2019-03-28T07:10:07.331Z,20.93
2019-03-28T07:12:35.888Z,19.87
2019-03-28T07:15:06.803Z,19.10
2019-03-28T07:17:35.341Z,20.87
2019-03-28T07:20:04.067Z,20.77
2019-03-28T07:22:32.610Z,13.73
2019-03-28T07:25:01.173Z,21.13
2019-03-28T07:27:29.641Z,14.80
2019-03-28T07:29:58.201Z,12.57
2019-03-28T07:32:26.742Z,18.53
2019-03-28T07:34:55.307Z,16.43
2019-03-28T07:37:23.839Z,17.10
2019-03-28T07:39:52.407Z,18.80
2019-03-28T07:42:20.944Z,18.40
2019-03-28T07:44:49.518Z,24.30
2019-03-28T07:47:17.978Z,19.40
2019-03-28T07:49:46.498Z,18.33
2019-03-28T07:52:15.045Z,17.50
2019-03-28T07:54:43.587Z,23.60
2019-03-28T07:57:12.162Z,24.47
2019-03-28T07:59:43.836Z,24.00
2019-03-28T08:02:10.934Z,30.83
2019-03-28T08:04:39.511Z,27.87
2019-03-28T08:07:08.053Z,29.40
2019-03-28T08:09:37.123Z,28.60
2019-03-28T08:12:05.848Z,28.70
2019-03-28T08:14:34.494Z,30.00
2019-03-28T08:17:03.074Z,34.43
2019-03-28T08:19:31.538Z,31.30
2019-03-28T08:22:00.117Z,25.23
2019-03-28T08:24:28.658Z,32.33
2019-03-28T08:26:57.250Z,28.50
2019-03-28T08:29:25.789Z,35.00
2019-03-28T08:31:55.116Z,29.70
2019-03-28T08:34:23.720Z,31.30
2019-03-28T08:36:53.030Z,28.83
2019-03-28T08:39:23.110Z,27.80
2019-03-28T08:41:51.695Z,29.13
2019-03-28T08:44:22.672Z,31.63
2019-03-28T08:46:50.463Z,32.37
2019-03-28T08:49:18.994Z,31.67
2019-03-28T08:51:47.511Z,29.93
2019-03-28T08:54:16.061Z,30.77
2019-03-28T08:56:44.587Z,30.20
2019-03-28T08:59:13.167Z,29.40
2019-03-28T09:01:41.771Z,32.63
2019-03-28T09:04:10.351Z,30.20
2019-03-28T09:06:38.894Z,29.20
2019-03-28T09:09:09.786Z,27.03
2019-03-28T09:11:38.254Z,32.40
2019-03-28T09:14:06.833Z,24.63
2019-03-28T09:16:35.312Z,26.60
2019-03-28T09:19:03.929Z,26.63
2019-03-28T09:21:32.458Z,27.63
2019-03-28T09:24:01.002Z,29.80
2019-03-28T09:26:29.587Z,25.93
2019-03-28T09:28:58.170Z,23.40
2019-03-28T09:31:26.818Z,24.10
2019-03-28T09:33:55.362Z,26.07
2019-03-28T09:36:23.958Z,31.37
2019-03-28T09:38:52.495Z,27.60
2019-03-28T09:41:21.083Z,24.63
2019-03-28T09:43:55.472Z,26.97
2019-03-28T09:46:19.979Z,24.80
2019-03-28T09:48:48.561Z,26.30
2019-03-28T09:51:17.064Z,23.23
2019-03-28T09:53:45.538Z,25.80
2019-03-28T09:56:14.046Z,25.10
2019-03-28T09:58:42.636Z,25.40
2019-03-28T10:01:11.311Z,22.23
2019-03-28T10:03:39.849Z,26.37
2019-03-28T10:06:08.398Z,22.43
2019-03-28T10:08:36.983Z,25.60
2019-03-28T10:11:05.522Z,20.33
2019-03-28T10:13:34.097Z,24.20
2019-03-28T10:16:02.642Z,26.77
2019-03-28T10:18:31.218Z,20.20
2019-03-28T10:20:59.753Z,22.70
2019-03-28T10:23:28.261Z,21.63
2019-03-28T10:25:56.772Z,21.37
2019-03-28T10:28:25.324Z,20.90
2019-03-28T10:30:53.978Z,19.50
2019-03-28T10:33:22.526Z,23.70
2019-03-28T10:35:51.118Z,19.83
2019-03-28T10:38:19.654Z,24.80
2019-03-28T10:40:48.125Z,25.43
2019-03-28T10:43:16.731Z,28.67
2019-03-28T10:45:45.315Z,19.33
2019-03-28T10:48:14.434Z,14.60
2019-03-28T10:50:45.784Z,17.00
2019-03-28T10:53:13.282Z,17.03
2019-03-28T10:55:42.563Z,15.53
2019-03-28T10:58:18.774Z,15.30
2019-03-28T11:00:41.574Z,14.77
2019-03-28T11:03:10.041Z,20.40
2019-03-28T11:05:38.510Z,17.80
2019-03-28T11:08:07.090Z,27.17
2019-03-28T11:10:35.772Z,17.37
2019-03-28T11:13:04.374Z,14.30
2019-03-28T11:15:32.877Z,10.27
2019-03-28T11:18:01.347Z,10.40
2019-03-28T11:20:29.918Z,5.73
2019-03-28T11:22:58.394Z,6.00
2019-03-28T11:25:27.071Z,5.63
2019-03-28T11:27:55.570Z,3.17
2019-03-28T11:30:24.074Z,4.17
2019-03-28T11:32:52.540Z,3.30
2019-03-28T11:35:21.120Z,6.00
2019-03-28T11:37:49.658Z,5.90
2019-03-28T11:40:18.680Z,5.53
2019-03-28T11:42:47.209Z,7.90
2019-03-28T11:45:15.863Z,6.00
2019-03-28T11:47:44.393Z,6.50
2019-03-28T11:50:16.838Z,6.73
2019-03-28T11:52:43.788Z,8.57
2019-03-28T11:55:12.682Z,8.27
2019-03-28T11:57:41.191Z,6.77
2019-03-28T12:00:12.914Z,6.67
2019-03-28T12:02:41.491Z,7.63
2019-03-28T12:05:10.199Z,10.40
2019-03-28T12:07:38.778Z,7.47
2019-03-28T12:10:10.017Z,6.90
2019-03-28T12:12:38.526Z,8.23
2019-03-28T12:15:08.806Z,7.00
2019-03-28T12:17:37.450Z,7.40
2019-03-28T12:20:07.555Z,6.17
2019-03-28T12:22:36.197Z,7.57
2019-03-28T12:25:06.202Z,9.13
2019-03-28T12:27:34.797Z,8.37
2019-03-28T12:30:04.299Z,6.97
2019-03-28T12:32:34.384Z,8.33
2019-03-28T12:35:03.026Z,6.20
2019-03-28T12:37:31.493Z,7.27
2019-03-28T12:40:00.226Z,7.43
2019-03-28T12:42:29.005Z,7.03
2019-03-28T12:44:58.423Z,5.30
2019-03-28T12:47:41.239Z,6.63
2019-03-28T12:49:57.846Z,8.63
2019-03-28T12:52:29.611Z,7.27
2019-03-28T12:54:56.599Z,5.43
2019-03-28T12:57:25.137Z,7.83
2019-03-28T12:59:53.882Z,7.73
2019-03-28T13:02:30.168Z,9.37
2019-03-28T13:04:52.701Z,8.47
2019-03-28T13:07:21.248Z,7.03
2019-03-28T13:09:49.990Z,7.00
2019-03-28T13:12:18.930Z,6.70
2019-03-28T13:14:47.812Z,6.90
2019-03-28T13:17:16.572Z,7.60
2019-03-28T13:19:45.154Z,7.30
2019-03-28T13:22:13.692Z,7.03
2019-03-28T13:24:42.268Z,6.10
2019-03-28T13:27:10.918Z,8.60
2019-03-28T13:29:39.453Z,8.50
2019-03-28T13:32:08.466Z,6.50
2019-03-28T13:34:37.001Z,6.90
2019-03-28T13:37:05.469Z,14.70
2019-03-28T13:39:34.054Z,6.27
2019-03-28T13:42:02.640Z,5.00
2019-03-28T13:44:31.179Z,5.20
2019-03-28T13:46:59.756Z,4.90
2019-03-28T13:49:28.332Z,6.67
2019-03-28T13:51:56.793Z,6.27
2019-03-28T13:54:25.389Z,5.37
2019-03-28T13:56:53.906Z,5.00
2019-03-28T13:59:22.514Z,4.87
2019-03-28T14:01:50.981Z,4.53
2019-03-28T14:04:19.553Z,4.00
2019-03-28T14:06:48.016Z,9.00
2019-03-28T14:09:16.592Z,7.10
2019-03-28T14:11:45.130Z,6.40
2019-03-28T14:14:13.702Z,6.00
2019-03-28T14:16:42.323Z,4.73
2019-03-28T14:19:10.838Z,10.43
2019-03-28T14:21:39.367Z,6.10
2019-03-28T14:24:07.951Z,7.63
2019-03-28T14:26:37.680Z,8.33
2019-03-28T14:29:07.149Z,6.10
2019-03-28T14:31:35.714Z,4.70
2019-03-28T14:34:04.362Z,10.80
2019-03-28T14:36:32.942Z,5.67
2019-03-28T14:39:01.533Z,6.03
2019-03-28T14:41:30.065Z,5.10
2019-03-28T14:43:58.525Z,8.70
2019-03-28T14:46:27.046Z,9.40
2019-03-28T14:48:55.572Z,7.43
2019-03-28T14:51:24.316Z,7.70
2019-03-28T14:53:52.871Z,9.63
2019-03-28T14:56:21.517Z,6.97
2019-03-28T14:58:52.866Z,6.93
2019-03-28T15:01:21.439Z,6.53
2019-03-28T15:03:50.012Z,5.97
2019-03-28T15:06:18.478Z,10.73
2019-03-28T15:08:47.052Z,8.10
2019-03-28T15:11:15.585Z,4.90
2019-03-28T15:13:44.089Z,12.43
2019-03-28T15:16:12.805Z,6.90
2019-03-28T15:18:41.354Z,8.03
2019-03-28T15:21:09.882Z,5.33
2019-03-28T15:23:38.387Z,14.47
2019-03-28T15:26:06.897Z,8.53
2019-03-28T15:28:35.429Z,5.27
2019-03-28T15:31:04.007Z,6.37
2019-03-28T15:33:39.589Z,7.37
2019-03-28T15:36:02.788Z,5.17
2019-03-28T15:38:31.611Z,6.47
2019-03-28T15:41:00.157Z,6.30
2019-03-28T15:43:28.739Z,4.20
2019-03-28T15:45:57.280Z,7.67
2019-03-28T15:48:26.346Z,6.50
2019-03-28T15:50:54.811Z,5.33
2019-03-28T15:53:23.770Z,4.83
2019-03-28T15:55:52.489Z,5.20
2019-03-28T15:58:23.629Z,5.87
2019-03-28T16:00:51.279Z,5.90
2019-03-28T16:03:19.814Z,9.07
2019-03-28T16:05:58.228Z,5.70
2019-03-28T16:08:18.914Z,4.73
2019-03-28T16:10:47.457Z,5.03
2019-03-28T16:13:16.015Z,6.50
2019-03-28T16:15:44.573Z,5.50
2019-03-28T16:18:13.707Z,6.13
2019-03-28T16:20:42.403Z,7.13
2019-03-28T16:23:10.936Z,7.03
2019-03-28T16:25:39.431Z,8.43
2019-03-28T16:28:07.962Z,6.47
2019-03-28T16:30:38.144Z,6.97
2019-03-28T16:33:06.809Z,6.23
2019-03-28T16:35:35.387Z,10.33
2019-03-28T16:38:03.913Z,7.63
2019-03-28T16:40:32.474Z,6.07
2019-03-28T16:43:01.005Z,9.53
2019-03-28T16:45:29.566Z,6.73
2019-03-28T16:47:58.268Z,8.10
2019-03-28T16:50:26.762Z,6.43
2019-03-28T16:52:55.291Z,7.27
2019-03-28T16:55:26.535Z,8.10
2019-03-28T16:57:54.136Z,6.90
2019-03-28T17:00:25.809Z,8.63
2019-03-28T17:02:54.271Z,9.30
2019-03-28T17:05:22.728Z,7.63
2019-03-28T17:07:51.714Z,8.60
2019-03-28T17:10:35.447Z,8.70
2019-03-28T17:13:04.001Z,9.60
2019-03-28T17:15:32.565Z,7.90
2019-03-28T17:18:01.032Z,8.07
2019-03-28T17:20:29.571Z,9.20
2019-03-28T17:22:58.134Z,10.27
2019-03-28T17:25:26.673Z,12.70
2019-03-28T17:27:55.269Z,13.70
2019-03-28T17:30:23.813Z,14.67
2019-03-28T17:32:52.370Z,8.70
2019-03-28T17:35:20.849Z,10.00
2019-03-28T17:37:49.407Z,9.83
2019-03-28T17:40:17.946Z,14.73
2019-03-28T17:42:47.958Z,9.77
2019-03-28T17:45:16.665Z,15.10
2019-03-28T17:47:45.235Z,10.63
2019-03-28T17:50:13.925Z,12.73
2019-03-28T17:52:42.496Z,9.10
2019-03-28T17:55:11.187Z,10.30
2019-03-28T17:57:39.903Z,9.10
2019-03-28T18:00:08.938Z,15.20
2019-03-28T18:02:37.502Z,10.10
2019-03-28T18:05:09.748Z,9.93
2019-03-28T18:07:36.997Z,13.53
2019-03-28T18:10:08.582Z,10.63
2019-03-28T18:12:37.196Z,11.50
2019-03-28T18:15:06.365Z,12.00
2019-03-28T18:17:34.996Z,12.77
2019-03-28T18:20:05.601Z,10.77
2019-03-28T18:22:34.229Z,14.07
2019-03-28T18:25:02.771Z,11.70
2019-03-28T18:27:31.339Z,15.13
2019-03-28T18:29:59.883Z,14.23
2019-03-28T18:32:28.452Z,12.30
2019-03-28T18:35:05.063Z,11.53
2019-03-28T18:37:27.213Z,14.40
2019-03-28T18:39:55.745Z,15.00
2019-03-28T18:42:24.318Z,14.50
2019-03-28T18:44:52.856Z,13.97
2019-03-28T18:47:21.419Z,16.47
2019-03-28T18:49:49.985Z,12.07
2019-03-28T18:52:18.547Z,12.73
2019-03-28T18:54:47.029Z,14.93
2019-03-28T18:57:15.598Z,14.50
2019-03-28T18:59:44.141Z,16.60
2019-03-28T19:02:12.711Z,13.40
2019-03-28T19:04:41.179Z,11.00
2019-03-28T19:07:10.001Z,12.30
2019-03-28T19:09:38.779Z,10.83
2019-03-28T19:12:07.344Z,12.83
2019-03-28T19:14:35.905Z,14.33
2019-03-28T19:17:04.519Z,9.23
2019-03-28T19:19:39.386Z,12.20
2019-03-28T19:22:03.265Z,12.20
2019-03-28T19:24:31.793Z,13.03
2019-03-28T19:27:00.281Z,13.33
2019-03-28T19:29:28.750Z,13.90
2019-03-28T19:31:57.378Z,9.80
2019-03-28T19:34:25.915Z,12.73
2019-03-28T19:36:55.853Z,10.10
2019-03-28T19:39:30.426Z,10.57
2019-03-28T19:41:59.360Z,8.30
2019-03-28T19:44:29.538Z,12.13
2019-03-28T19:46:58.402Z,9.73
2019-03-28T19:49:26.962Z,12.87
2019-03-28T19:51:55.519Z,10.80
2019-03-28T19:54:24.129Z,10.10
2019-03-28T19:56:52.689Z,12.67
2019-03-28T19:59:21.149Z,12.30
2019-03-28T20:01:49.614Z,15.00
2019-03-28T20:04:18.188Z,13.43
2019-03-28T20:06:46.728Z,10.43
2019-03-28T20:09:16.366Z,10.37
2019-03-28T20:11:45.602Z,9.27
2019-03-28T20:14:14.329Z,8.73
2019-03-28T20:16:43.137Z,11.80
2019-03-28T20:19:11.710Z,10.10
2019-03-28T20:21:40.417Z,11.07
2019-03-28T20:24:10.888Z,7.90
2019-03-28T20:26:39.366Z,11.80
2019-03-28T20:29:08.760Z,11.13
2019-03-28T20:31:37.370Z,10.47
2019-03-28T20:34:05.938Z,11.90
2019-03-28T20:36:38.006Z,11.77
2019-03-28T20:39:07.200Z,10.70
2019-03-28T20:41:35.720Z,9.20
2019-03-28T20:44:04.283Z,10.33
2019-03-28T20:46:32.742Z,9.63
2019-03-28T20:49:01.305Z,10.53
2019-03-28T20:51:29.846Z,10.90
2019-03-28T20:53:58.406Z,8.03
2019-03-28T20:56:26.948Z,9.33
2019-03-28T20:58:55.511Z,11.40
2019-03-28T21:01:24.041Z,11.17
2019-03-28T21:03:53.069Z,9.33
2019-03-28T21:06:21.606Z,10.10
2019-03-28T21:08:50.170Z,10.30
2019-03-28T21:11:18.709Z,9.10
2019-03-28T21:13:47.270Z,10.80
2019-03-28T21:16:15.737Z,10.20
2019-03-28T21:18:44.301Z,7.30
2019-03-28T21:21:12.847Z,8.03
2019-03-28T21:23:41.399Z,8.10
2019-03-28T21:26:09.938Z,8.77
2019-03-28T21:28:46.941Z,8.67
2019-03-28T21:31:08.686Z,9.40
2019-03-28T21:33:37.248Z,12.60
2019-03-28T21:36:05.708Z,9.97
2019-03-28T21:38:34.197Z,10.47
2019-03-28T21:41:02.743Z,11.40
2019-03-28T21:43:31.301Z,8.23
2019-03-28T21:45:59.775Z,13.00
2019-03-28T21:48:28.337Z,13.93
2019-03-28T21:50:56.870Z,8.30
2019-03-28T21:53:25.359Z,7.53
2019-03-28T21:55:55.361Z,12.20
2019-03-28T21:58:24.122Z,10.10
2019-03-28T22:00:52.667Z,8.30
2019-03-28T22:03:21.226Z,8.47
2019-03-28T22:05:49.698Z,13.93
2019-03-28T22:08:18.187Z,12.60
2019-03-28T22:10:46.719Z,9.40
2019-03-28T22:13:15.286Z,10.50
2019-03-28T22:15:43.830Z,13.83
2019-03-28T22:18:12.385Z,7.47
2019-03-28T22:20:40.841Z,9.93
2019-03-28T22:23:09.399Z,8.20
2019-03-28T22:25:38.010Z,7.43
2019-03-28T22:28:06.635Z,10.10
2019-03-28T22:30:35.237Z,12.40
2019-03-28T22:33:03.726Z,9.53
2019-03-28T22:35:32.259Z,8.03
2019-03-28T22:38:00.827Z,13.47
2019-03-28T22:40:29.368Z,9.83
2019-03-28T22:42:57.926Z,13.73
2019-03-28T22:45:26.380Z,7.90
2019-03-28T22:47:54.837Z,12.37
2019-03-28T22:50:24.015Z,9.67
2019-03-28T22:52:52.763Z,6.83
2019-03-28T22:55:21.328Z,9.67
2019-03-28T22:57:49.866Z,11.30
2019-03-28T23:00:21.146Z,8.90
2019-03-28T23:02:49.690Z,12.10
2019-03-28T23:05:18.386Z,10.63
2019-03-28T23:07:46.851Z,7.63
2019-03-28T23:10:16.255Z,12.83
2019-03-28T23:12:48.398Z,7.80
2019-03-28T23:15:17.518Z,9.90
2019-03-28T23:17:46.875Z,9.87
2019-03-28T23:20:15.613Z,7.97
2019-03-28T23:22:44.073Z,10.53
2019-03-28T23:25:12.707Z,12.80
2019-03-28T23:27:41.278Z,9.47
2019-03-28T23:30:10.433Z,9.67
2019-03-28T23:32:38.986Z,9.10
2019-03-28T23:35:08.195Z,10.50
2019-03-28T23:37:36.725Z,12.23
2019-03-28T23:40:06.930Z,11.87
2019-03-28T23:42:35.533Z,13.40
2019-03-28T23:45:05.729Z,10.40
2019-03-28T23:47:34.261Z,9.93
2019-03-28T23:50:02.749Z,10.20
2019-03-28T23:52:31.210Z,9.17
2019-03-28T23:54:59.773Z,12.33
2019-03-28T23:57:28.900Z,10.30
2019-03-28T23:59:57.670Z,10.43
